createdAt,value
2023-02-17T00:00:40.938Z,68.00
2023-02-17T00:03:10.206Z,68.00
2023-02-17T00:05:39.996Z,67.90
2023-02-17T00:08:07.660Z,66.20
2023-02-17T00:10:35.335Z,66.90
2023-02-17T00:13:03.054Z,66.00
2023-02-17T00:15:32.113Z,65.60
2023-02-17T00:17:59.854Z,64.20
2023-02-17T00:20:28.913Z,64.20
2023-02-17T00:22:56.598Z,64.10
2023-02-17T00:25:24.336Z,63.30
2023-02-17T00:27:52.014Z,63.30
2023-02-17T00:30:20.130Z,62.40
2023-02-17T00:32:49.532Z,61.40
2023-02-17T00:35:17.241Z,60.60
2023-02-17T00:37:45.611Z,60.80
2023-02-17T00:40:13.741Z,60.30
2023-02-17T00:42:41.519Z,60.10
2023-02-17T00:45:09.787Z,59.60
2023-02-17T00:47:37.468Z,58.60
2023-02-17T00:50:07.931Z,58.70
2023-02-17T00:52:35.998Z,58.00
2023-02-17T00:55:03.702Z,58.30
2023-02-17T00:57:32.219Z,57.70
2023-02-17T00:59:59.974Z,57.50
2023-02-17T01:02:27.666Z,56.90
2023-02-17T01:04:55.355Z,56.40
2023-02-17T01:07:24.437Z,56.20
2023-02-17T01:09:52.117Z,55.90
2023-02-17T01:12:19.790Z,56.50
2023-02-17T01:14:47.481Z,55.20
2023-02-17T01:17:15.184Z,54.70
2023-02-17T01:19:42.884Z,54.90
2023-02-17T01:22:11.057Z,54.60
2023-02-17T01:24:40.802Z,54.10
2023-02-17T01:27:08.519Z,53.30
2023-02-17T01:29:36.173Z,53.20
2023-02-17T01:32:04.667Z,53.20
2023-02-17T01:34:32.376Z,52.50
2023-02-17T01:37:00.237Z,52.50
2023-02-17T01:39:27.876Z,52.00
2023-02-17T01:41:57.177Z,52.00
2023-02-17T01:44:25.280Z,51.60
2023-02-17T01:46:53.472Z,51.40
2023-02-17T01:49:28.371Z,51.20
2023-02-17T01:51:58.100Z,50.90
2023-02-17T01:54:27.560Z,50.70
2023-02-17T01:56:56.597Z,50.60
2023-02-17T01:59:24.294Z,50.60
2023-02-17T02:01:53.861Z,50.00
2023-02-17T02:04:22.776Z,49.90
2023-02-17T02:06:50.441Z,50.00
2023-02-17T02:09:20.153Z,49.40
2023-02-17T02:11:49.906Z,49.10
2023-02-17T02:14:18.910Z,49.00
2023-02-17T02:16:50.458Z,48.80
2023-02-17T02:19:39.912Z,48.50
2023-02-17T02:22:19.405Z,47.80
2023-02-17T02:24:52.835Z,47.80
2023-02-17T02:27:30.383Z,47.60
2023-02-17T02:30:09.546Z,47.20
2023-02-17T02:32:44.946Z,47.10
2023-02-17T02:35:14.917Z,47.00
2023-02-17T02:37:44.167Z,47.10
2023-02-17T02:40:12.655Z,47.00
2023-02-17T02:42:40.426Z,46.80
2023-02-17T02:45:09.490Z,46.50
2023-02-17T02:47:46.897Z,46.70
2023-02-17T02:50:20.224Z,45.90
2023-02-17T02:52:57.435Z,46.00
2023-02-17T02:55:29.014Z,45.90
2023-02-17T02:58:00.270Z,46.10
2023-02-17T03:00:30.855Z,46.00
2023-02-17T03:03:02.300Z,46.00
2023-02-17T03:05:33.944Z,45.70
2023-02-17T03:08:03.909Z,45.70
2023-02-17T03:10:31.576Z,45.60
2023-02-17T03:12:59.325Z,45.60
2023-02-17T03:15:28.729Z,45.60
2023-02-17T03:17:57.696Z,45.40
2023-02-17T03:20:26.903Z,45.10
2023-02-17T03:22:54.626Z,45.00
2023-02-17T03:25:22.354Z,45.10
2023-02-17T03:27:50.095Z,45.00
2023-02-17T03:30:18.086Z,45.00
2023-02-17T03:32:45.929Z,45.00
2023-02-17T03:35:13.882Z,44.80
2023-02-17T03:37:42.906Z,44.80
2023-02-17T03:40:11.126Z,44.70
2023-02-17T03:42:38.865Z,44.50
2023-02-17T03:45:07.114Z,44.70
2023-02-17T03:47:34.792Z,44.60
2023-02-17T03:50:02.491Z,44.70
2023-02-17T03:52:30.165Z,44.50
2023-02-17T03:54:59.154Z,44.60
2023-02-17T03:57:26.846Z,44.50
2023-02-17T03:59:54.527Z,44.50
2023-02-17T04:02:22.208Z,44.50
2023-02-17T04:04:50.041Z,44.50
2023-02-17T04:07:17.704Z,44.40
2023-02-17T04:09:45.611Z,44.50
2023-02-17T04:12:14.624Z,44.40
2023-02-17T04:14:42.267Z,44.40
2023-02-17T04:17:09.909Z,44.50
2023-02-17T04:19:37.713Z,44.70
2023-02-17T04:22:08.725Z,44.90
2023-02-17T04:24:36.998Z,44.80
2023-02-17T04:27:05.000Z,44.90
2023-02-17T04:29:34.092Z,44.90
2023-02-17T04:32:01.882Z,44.90
2023-02-17T04:34:29.688Z,45.50
2023-02-17T04:36:57.372Z,45.00
2023-02-17T04:39:25.055Z,45.00
2023-02-17T04:41:52.885Z,44.90
2023-02-17T04:44:20.549Z,45.00
2023-02-17T04:46:49.540Z,45.00
2023-02-17T04:49:17.241Z,45.00
2023-02-17T04:51:44.919Z,45.10
2023-02-17T04:54:12.561Z,45.10
2023-02-17T04:56:40.222Z,45.10
2023-02-17T04:59:07.880Z,45.10
2023-02-17T05:01:35.546Z,45.10
2023-02-17T05:04:04.858Z,45.10
2023-02-17T05:06:32.504Z,45.30
2023-02-17T05:09:00.168Z,45.30
2023-02-17T05:11:27.835Z,45.30
2023-02-17T05:13:55.469Z,45.40
2023-02-17T05:16:23.185Z,45.50
2023-02-17T05:18:50.900Z,45.40
2023-02-17T05:21:19.908Z,45.50
2023-02-17T05:23:47.588Z,45.50
2023-02-17T05:26:15.307Z,45.60
2023-02-17T05:28:42.971Z,45.50
2023-02-17T05:31:10.710Z,45.60
2023-02-17T05:33:38.474Z,45.60
2023-02-17T05:36:07.740Z,45.70
2023-02-17T05:38:37.085Z,45.70
2023-02-17T05:41:05.178Z,45.60
2023-02-17T05:43:32.887Z,45.70
2023-02-17T05:46:03.042Z,45.70
2023-02-17T05:48:30.788Z,45.80
2023-02-17T05:50:58.439Z,45.90
2023-02-17T05:53:26.137Z,45.90
2023-02-17T05:55:55.106Z,46.00
2023-02-17T05:58:22.881Z,45.80
2023-02-17T06:00:50.541Z,45.90
2023-02-17T06:03:18.941Z,46.00
2023-02-17T06:05:46.669Z,46.00
2023-02-17T06:08:14.390Z,46.10
2023-02-17T06:10:42.686Z,46.00
2023-02-17T06:13:11.677Z,46.10
2023-02-17T06:15:39.374Z,46.10
2023-02-17T06:18:07.095Z,46.30
2023-02-17T06:20:34.805Z,46.30
2023-02-17T06:23:02.452Z,46.40
2023-02-17T06:25:30.111Z,46.50
2023-02-17T06:27:57.761Z,46.60
2023-02-17T06:30:26.768Z,46.50
2023-02-17T06:32:54.448Z,46.50
2023-02-17T06:35:22.125Z,46.50
2023-02-17T06:37:50.022Z,46.60
2023-02-17T06:40:18.207Z,46.70
2023-02-17T06:42:45.880Z,46.70
2023-02-17T06:45:13.564Z,46.80
2023-02-17T06:47:42.544Z,46.90
2023-02-17T06:50:10.812Z,47.00
2023-02-17T06:52:38.485Z,47.00
2023-02-17T06:55:06.703Z,47.00
2023-02-17T06:57:34.383Z,47.20
2023-02-17T07:00:02.046Z,47.80
2023-02-17T07:02:29.814Z,47.20
2023-02-17T07:04:59.009Z,47.40
2023-02-17T07:07:26.749Z,47.50
2023-02-17T07:09:54.394Z,47.50
2023-02-17T07:12:22.064Z,47.50
2023-02-17T07:14:49.742Z,47.60
2023-02-17T07:17:17.409Z,47.60
2023-02-17T07:19:45.062Z,47.70
2023-02-17T07:22:14.030Z,47.80
2023-02-17T07:24:41.677Z,47.80
2023-02-17T07:27:10.836Z,47.80
2023-02-17T07:29:38.642Z,47.80
2023-02-17T07:32:06.374Z,47.80
2023-02-17T07:34:34.078Z,47.90
2023-02-17T07:37:01.727Z,48.00
2023-02-17T07:39:30.682Z,48.00
2023-02-17T07:42:00.868Z,48.00
2023-02-17T07:44:28.637Z,48.00
2023-02-17T07:46:56.298Z,48.10
2023-02-17T07:49:23.936Z,48.10
2023-02-17T07:51:51.633Z,48.10
2023-02-17T07:54:19.499Z,48.00
2023-02-17T07:56:48.568Z,48.10
2023-02-17T07:59:16.259Z,48.00
2023-02-17T08:01:44.014Z,48.10
2023-02-17T08:04:11.715Z,48.20
2023-02-17T08:06:40.061Z,48.00
2023-02-17T08:09:25.627Z,48.00
2023-02-17T08:12:12.533Z,48.10
2023-02-17T08:14:40.223Z,48.20
2023-02-17T08:17:08.160Z,48.30
2023-02-17T08:19:47.577Z,48.30
2023-02-17T08:22:16.012Z,48.30
2023-02-17T08:24:43.688Z,48.30
2023-02-17T08:27:13.283Z,48.40
2023-02-17T08:29:41.039Z,48.20
2023-02-17T08:32:08.980Z,48.50
2023-02-17T08:34:36.818Z,48.40
2023-02-17T08:37:04.693Z,48.50
2023-02-17T08:39:33.087Z,48.50
2023-02-17T08:42:00.907Z,48.60
2023-02-17T08:44:29.953Z,48.60
2023-02-17T08:46:57.611Z,48.60
2023-02-17T08:49:26.892Z,48.70
2023-02-17T08:51:54.599Z,48.40
2023-02-17T08:54:22.268Z,48.80
2023-02-17T08:56:50.001Z,48.80
2023-02-17T08:59:17.753Z,48.90
2023-02-17T09:01:46.808Z,48.80
2023-02-17T09:04:14.812Z,48.70
2023-02-17T09:06:43.707Z,48.80
2023-02-17T09:09:12.331Z,48.80
2023-02-17T09:11:39.983Z,48.90
2023-02-17T09:14:07.898Z,49.00
2023-02-17T09:16:35.619Z,49.00
2023-02-17T09:19:04.654Z,49.00
2023-02-17T09:21:32.443Z,49.10
2023-02-17T09:24:00.129Z,49.10
2023-02-17T09:26:27.795Z,49.00
2023-02-17T09:28:55.483Z,49.00
2023-02-17T09:31:23.958Z,49.40
2023-02-17T09:33:52.070Z,49.00
2023-02-17T09:36:22.257Z,49.10
2023-02-17T09:38:50.111Z,49.00
2023-02-17T09:41:19.668Z,49.20
2023-02-17T09:43:47.412Z,49.80
2023-02-17T09:46:17.568Z,49.10
2023-02-17T09:48:45.286Z,49.10
2023-02-17T09:51:16.910Z,49.20
2023-02-17T09:53:48.029Z,49.10
2023-02-17T09:56:19.571Z,49.20
2023-02-17T09:58:48.468Z,49.30
2023-02-17T10:01:18.519Z,49.50
2023-02-17T10:03:47.905Z,49.50
2023-02-17T10:06:17.148Z,49.50
2023-02-17T10:08:48.668Z,49.60
2023-02-17T10:11:19.954Z,49.50
2023-02-17T10:13:47.795Z,49.60
2023-02-17T10:16:18.730Z,49.60
2023-02-17T10:18:48.250Z,49.60
2023-02-17T10:21:19.576Z,49.50
2023-02-17T10:23:48.871Z,49.50
2023-02-17T10:26:21.084Z,49.70
2023-02-17T10:28:51.909Z,49.70
2023-02-17T10:31:25.677Z,49.60
2023-02-17T10:33:56.167Z,49.70
2023-02-17T10:36:26.544Z,49.70
2023-02-17T10:38:57.841Z,49.70
2023-02-17T10:41:27.528Z,49.70
2023-02-17T10:43:55.283Z,49.70
2023-02-17T10:46:26.628Z,49.70
2023-02-17T10:48:54.872Z,49.90
2023-02-17T10:51:25.822Z,49.80
2023-02-17T10:53:57.511Z,49.90
2023-02-17T10:56:26.910Z,49.90
2023-02-17T10:58:56.230Z,50.00
2023-02-17T11:01:24.130Z,50.00
2023-02-17T11:04:00.837Z,50.10
2023-02-17T11:06:28.488Z,50.10
2023-02-17T11:08:59.507Z,50.30
2023-02-17T11:11:27.620Z,50.30
2023-02-17T11:14:04.573Z,50.30
2023-02-17T11:16:35.809Z,50.30
2023-02-17T11:19:04.366Z,50.50
2023-02-17T11:21:33.135Z,50.50
2023-02-17T11:24:03.345Z,50.50
2023-02-17T11:26:32.237Z,50.60
2023-02-17T11:29:10.080Z,50.60
2023-02-17T11:31:37.966Z,50.50
2023-02-17T11:34:13.305Z,50.60
2023-02-17T11:36:40.982Z,50.60
2023-02-17T11:39:19.270Z,50.60
2023-02-17T11:41:46.935Z,50.70
2023-02-17T11:44:25.912Z,50.90
2023-02-17T11:46:58.913Z,50.90
2023-02-17T11:49:42.369Z,51.00
2023-02-17T11:52:17.433Z,50.80
2023-02-17T11:54:52.903Z,51.00
2023-02-17T11:57:28.551Z,51.10
2023-02-17T12:00:04.291Z,51.20
2023-02-17T12:02:52.048Z,51.20
2023-02-17T12:05:23.600Z,51.40
2023-02-17T12:07:58.226Z,51.40
2023-02-17T12:10:32.282Z,51.40
2023-02-17T12:13:04.505Z,51.30
2023-02-17T12:15:54.180Z,51.40
2023-02-17T12:18:36.405Z,51.30
2023-02-17T12:21:07.672Z,51.10
2023-02-17T12:24:04.274Z,51.00
2023-02-17T12:26:37.926Z,50.80
2023-02-17T12:29:18.748Z,50.70
2023-02-17T12:32:07.016Z,51.00
2023-02-17T12:34:36.893Z,51.90
2023-02-17T12:37:04.820Z,51.60
2023-02-17T12:39:35.511Z,52.80
2023-02-17T12:42:05.938Z,53.00
2023-02-17T12:44:34.561Z,54.70
2023-02-17T12:47:05.116Z,54.40
2023-02-17T12:49:35.388Z,56.60
2023-02-17T12:52:06.744Z,56.40
2023-02-17T12:54:36.449Z,58.60
2023-02-17T12:57:11.648Z,57.20
2023-02-17T12:59:40.061Z,56.70
2023-02-17T13:02:11.478Z,56.20
2023-02-17T13:04:39.208Z,56.40
2023-02-17T13:07:33.564Z,57.50
2023-02-17T13:10:01.269Z,58.70
2023-02-17T13:12:36.378Z,59.20
2023-02-17T13:15:05.188Z,61.70
2023-02-17T13:17:34.268Z,61.40
2023-02-17T13:20:08.465Z,64.00
2023-02-17T13:22:36.509Z,65.60
2023-02-17T13:25:04.202Z,66.00
2023-02-17T13:27:34.968Z,68.40
2023-02-17T13:30:03.448Z,69.10
2023-02-17T13:32:32.098Z,68.00
2023-02-17T13:35:05.606Z,68.80
2023-02-17T13:37:40.714Z,69.60
2023-02-17T13:40:32.639Z,69.50
2023-02-17T13:43:10.418Z,70.10
2023-02-17T13:45:41.675Z,70.70
2023-02-17T13:48:14.350Z,70.20
2023-02-17T13:50:45.456Z,70.00
2023-02-17T13:53:28.497Z,70.90
2023-02-17T13:55:57.749Z,70.80
2023-02-17T13:58:28.880Z,70.20
2023-02-17T14:00:57.145Z,70.80
2023-02-17T14:03:25.883Z,69.70
2023-02-17T14:05:54.266Z,71.20
2023-02-17T14:08:28.503Z,71.70
2023-02-17T14:10:56.319Z,71.30
2023-02-17T14:13:24.237Z,71.80
2023-02-17T14:15:54.948Z,71.50
2023-02-17T14:18:29.962Z,72.30
2023-02-17T14:21:02.551Z,72.40
2023-02-17T14:23:30.266Z,73.00
2023-02-17T14:25:57.934Z,72.20
2023-02-17T14:28:26.457Z,72.80
2023-02-17T14:30:55.646Z,72.60
2023-02-17T14:33:24.888Z,72.20
2023-02-17T14:35:53.623Z,72.60
2023-02-17T14:38:22.594Z,72.20
2023-02-17T14:40:50.485Z,72.50
2023-02-17T14:43:18.135Z,73.00
2023-02-17T14:45:45.960Z,73.20
2023-02-17T14:48:15.006Z,72.80
2023-02-17T14:50:44.193Z,73.10
2023-02-17T14:53:14.146Z,73.20
2023-02-17T14:55:45.140Z,73.70
2023-02-17T14:58:13.835Z,74.10
2023-02-17T15:00:41.497Z,73.40
2023-02-17T15:03:09.161Z,71.90
2023-02-17T15:05:38.168Z,70.30
2023-02-17T15:08:06.066Z,69.10
2023-02-17T15:10:35.826Z,68.10
2023-02-17T15:13:03.471Z,67.50
2023-02-17T15:15:31.281Z,66.90
2023-02-17T15:17:58.976Z,67.20
2023-02-17T15:20:26.664Z,65.70
2023-02-17T15:22:55.707Z,64.50
2023-02-17T15:25:23.441Z,63.40
2023-02-17T15:27:51.383Z,64.20
2023-02-17T15:30:19.381Z,62.90
2023-02-17T15:32:47.195Z,63.20
2023-02-17T15:35:19.984Z,61.70
2023-02-17T15:37:47.725Z,61.20
2023-02-17T15:40:18.010Z,56.60
2023-02-17T15:42:45.994Z,54.90
2023-02-17T15:45:15.256Z,54.60
2023-02-17T15:47:42.928Z,55.70
2023-02-17T15:50:18.168Z,55.80
2023-02-17T15:52:47.933Z,56.10
2023-02-17T15:55:18.034Z,56.60
2023-02-17T15:57:47.545Z,57.60
2023-02-17T16:00:20.950Z,57.10
2023-02-17T16:02:48.631Z,56.70
2023-02-17T16:05:17.185Z,58.10
2023-02-17T16:07:44.933Z,58.00
2023-02-17T16:10:13.970Z,58.90
2023-02-17T16:12:42.972Z,58.40
2023-02-17T16:15:13.237Z,60.00
2023-02-17T16:17:40.894Z,63.80
2023-02-17T16:20:14.539Z,61.90
2023-02-17T16:22:42.270Z,60.80
2023-02-17T16:25:10.391Z,60.60
2023-02-17T16:27:38.142Z,62.30
2023-02-17T16:30:19.487Z,63.90
2023-02-17T16:32:47.395Z,65.20
2023-02-17T16:35:16.446Z,62.70
2023-02-17T16:37:46.542Z,63.30
2023-02-17T16:40:17.800Z,62.30
2023-02-17T16:42:45.595Z,62.90
2023-02-17T16:45:18.408Z,58.70
2023-02-17T16:47:47.053Z,60.00
2023-02-17T16:50:18.879Z,59.90
2023-02-17T16:52:46.610Z,58.70
2023-02-17T16:55:17.310Z,58.00
2023-02-17T16:57:45.116Z,57.30
2023-02-17T17:00:14.106Z,57.80
2023-02-17T17:02:43.228Z,56.60
2023-02-17T17:05:11.372Z,57.80
2023-02-17T17:07:39.439Z,58.60
2023-02-17T17:10:16.386Z,58.80
2023-02-17T17:12:44.850Z,58.30
2023-02-17T17:15:12.700Z,57.20
2023-02-17T17:17:43.750Z,60.60
2023-02-17T17:20:14.741Z,58.40
2023-02-17T17:22:42.536Z,57.70
2023-02-17T17:25:10.342Z,57.20
2023-02-17T17:27:38.106Z,58.10
2023-02-17T17:30:06.900Z,57.70
2023-02-17T17:32:34.666Z,59.40
2023-02-17T17:35:03.738Z,59.00
2023-02-17T17:37:31.564Z,59.50
2023-02-17T17:39:59.419Z,58.00
2023-02-17T17:42:27.555Z,53.80
2023-02-17T17:44:55.288Z,51.20
2023-02-17T17:47:29.768Z,51.30
2023-02-17T17:49:58.199Z,50.90
2023-02-17T17:52:27.224Z,51.00
2023-02-17T17:54:54.965Z,50.10
2023-02-17T17:57:23.039Z,50.30
2023-02-17T17:59:50.742Z,50.50
2023-02-17T18:02:18.500Z,51.50
2023-02-17T18:04:46.226Z,52.10
2023-02-17T18:07:13.951Z,52.60
2023-02-17T18:09:42.939Z,53.80
